createdAt,value
2023-03-26T00:01:47.463Z,1.90
2023-03-26T00:04:14.583Z,1.30
2023-03-26T00:06:41.817Z,1.20
2023-03-26T00:09:13.922Z,1.52
2023-03-26T00:11:42.642Z,0.85
2023-03-26T00:14:13.853Z,1.10
2023-03-26T00:16:42.742Z,1.10
2023-03-26T00:19:11.729Z,1.38
2023-03-26T00:21:42.122Z,0.63
2023-03-26T00:24:17.550Z,1.65
2023-03-26T00:26:48.550Z,1.40
2023-03-26T00:29:16.982Z,1.52
2023-03-26T00:31:46.407Z,1.45
2023-03-26T00:34:18.718Z,1.20
2023-03-26T00:39:15.250Z,1.20
2023-03-26T00:41:43.734Z,0.88
2023-03-26T00:44:11.540Z,1.48
2023-03-26T00:46:39.202Z,1.20
2023-03-26T00:49:10.845Z,1.30
2023-03-26T00:51:39.269Z,0.98
2023-03-26T00:54:08.536Z,0.90
2023-03-26T00:56:36.069Z,0.90
2023-03-26T00:59:03.282Z,1.33
2023-03-26T01:01:30.733Z,1.08
2023-03-26T01:04:24.308Z,0.80
2023-03-26T01:07:04.730Z,0.90
2023-03-26T01:09:37.866Z,1.17
2023-03-26T01:12:11.680Z,0.93
2023-03-26T01:14:42.516Z,1.45
2023-03-26T01:17:12.559Z,1.38
2023-03-26T01:19:51.989Z,0.90
2023-03-26T01:22:26.438Z,1.25
2023-03-26T01:24:59.294Z,1.00
2023-03-26T01:27:41.141Z,1.20
2023-03-26T01:30:27.335Z,1.13
2023-03-26T01:33:19.235Z,0.90
2023-03-26T01:35:59.241Z,1.40
2023-03-26T01:38:47.144Z,0.80
2023-03-26T01:41:50.898Z,0.88
2023-03-26T01:44:26.983Z,1.02
2023-03-26T01:46:55.562Z,0.63
2023-03-26T01:49:31.891Z,1.00
2023-03-26T01:51:59.264Z,0.93
2023-03-26T01:54:31.465Z,0.85
2023-03-26T01:57:22.729Z,0.80
2023-03-26T01:59:58.805Z,1.00
2023-03-26T02:02:47.467Z,0.90
2023-03-26T02:05:44.080Z,1.10
2023-03-26T02:08:37.812Z,1.00
2023-03-26T02:11:13.233Z,0.82
2023-03-26T02:13:44.987Z,0.75
2023-03-26T02:16:18.591Z,1.25
2023-03-26T02:18:51.435Z,0.90
2023-03-26T02:21:22.727Z,1.13
2023-03-26T02:24:03.328Z,1.00
2023-03-26T02:26:35.944Z,1.10
2023-03-26T02:29:09.908Z,1.00
2023-03-26T02:31:39.327Z,0.93
2023-03-26T02:34:07.537Z,0.77
2023-03-26T02:36:37.544Z,0.73
2023-03-26T02:39:05.764Z,1.33
2023-03-26T02:41:38.785Z,0.90
2023-03-26T02:44:11.090Z,0.75
2023-03-26T02:47:14.808Z,0.73
2023-03-26T02:49:54.439Z,1.30
2023-03-26T02:52:49.908Z,0.75
2023-03-26T02:55:17.504Z,0.77
2023-03-26T02:57:45.767Z,0.90
2023-03-26T03:00:22.145Z,1.10
2023-03-26T03:02:50.537Z,1.05
2023-03-26T03:05:43.726Z,0.95
2023-03-26T03:08:30.316Z,1.30
2023-03-26T03:11:26.016Z,1.10
2023-03-26T03:13:54.027Z,0.85
2023-03-26T03:16:27.101Z,1.17
2023-03-26T03:18:57.594Z,0.68
2023-03-26T03:21:30.561Z,1.00
2023-03-26T03:24:00.008Z,0.80
2023-03-26T03:26:29.862Z,0.93
2023-03-26T03:28:59.217Z,1.45
2023-03-26T03:31:28.769Z,1.10
2023-03-26T03:34:01.719Z,0.90
2023-03-26T03:36:33.416Z,1.30
2023-03-26T03:39:07.853Z,1.02
2023-03-26T03:41:36.768Z,1.20
2023-03-26T03:44:08.058Z,1.27
2023-03-26T03:46:36.032Z,0.70
2023-03-26T03:49:03.760Z,1.00
2023-03-26T03:51:35.783Z,1.20
2023-03-26T03:54:06.488Z,0.98
2023-03-26T03:56:56.570Z,1.60
2023-03-26T03:59:47.780Z,1.00
2023-03-26T04:02:26.421Z,1.40
2023-03-26T04:04:58.566Z,1.52
2023-03-26T04:07:27.120Z,1.30
2023-03-26T04:10:09.101Z,1.33
2023-03-26T04:13:08.313Z,1.50
2023-03-26T04:15:55.313Z,1.30
2023-03-26T04:18:23.510Z,1.00
2023-03-26T04:20:52.889Z,1.27
2023-03-26T04:23:24.699Z,1.50
2023-03-26T04:26:04.321Z,0.98
2023-03-26T04:29:06.062Z,1.48
2023-03-26T04:31:36.355Z,1.33
2023-03-26T04:34:14.223Z,2.05
2023-03-26T04:36:57.034Z,0.80
2023-03-26T04:39:30.383Z,0.80
2023-03-26T04:42:19.909Z,0.93
2023-03-26T04:45:09.293Z,1.23
2023-03-26T04:47:39.002Z,1.17
2023-03-26T04:50:09.980Z,1.20
2023-03-26T04:52:38.684Z,1.33
2023-03-26T04:55:36.263Z,1.30
2023-03-26T04:58:13.969Z,0.95
2023-03-26T05:00:57.424Z,1.50
2023-03-26T05:03:25.793Z,1.10
2023-03-26T05:05:54.765Z,1.48
2023-03-26T05:08:22.745Z,1.25
2023-03-26T05:10:50.104Z,1.33
2023-03-26T05:13:29.011Z,1.30
2023-03-26T05:15:59.957Z,1.30
2023-03-26T05:18:53.051Z,1.60
2023-03-26T05:21:22.511Z,1.20
2023-03-26T05:23:49.580Z,1.15
2023-03-26T05:26:19.614Z,1.63
2023-03-26T05:28:46.949Z,1.27
2023-03-26T05:31:32.350Z,1.48
2023-03-26T05:34:00.752Z,1.20
2023-03-26T05:36:28.534Z,1.33
2023-03-26T05:39:09.113Z,1.45
2023-03-26T05:42:07.823Z,1.70
2023-03-26T05:44:51.193Z,1.38
2023-03-26T05:47:24.386Z,1.30
2023-03-26T05:49:51.689Z,1.55
2023-03-26T05:52:19.159Z,1.27
2023-03-26T05:55:05.457Z,1.35
2023-03-26T05:58:02.812Z,1.58
2023-03-26T06:00:49.256Z,1.73
2023-03-26T06:03:28.679Z,1.38
2023-03-26T06:06:17.472Z,0.50
2023-03-26T06:09:02.151Z,1.52
2023-03-26T06:11:32.149Z,1.25
2023-03-26T06:14:01.085Z,1.50
2023-03-26T06:16:28.613Z,1.08
2023-03-26T06:19:13.566Z,1.80
2023-03-26T06:21:54.930Z,1.42
2023-03-26T06:24:28.794Z,1.42
2023-03-26T06:27:14.425Z,1.20
2023-03-26T06:30:11.969Z,1.60
2023-03-26T06:32:52.608Z,2.10
2023-03-26T06:35:25.024Z,0.85
2023-03-26T06:37:52.086Z,0.90
2023-03-26T06:40:19.510Z,1.38
2023-03-26T06:43:07.595Z,1.27
2023-03-26T06:45:55.377Z,1.65
2023-03-26T06:48:45.419Z,1.50
2023-03-26T06:51:12.488Z,1.45
2023-03-26T06:53:58.699Z,1.05
2023-03-26T06:56:45.055Z,1.33
2023-03-26T06:59:44.503Z,1.27
2023-03-26T07:02:31.664Z,1.63
2023-03-26T07:05:17.582Z,1.88
2023-03-26T07:08:03.630Z,1.60
2023-03-26T07:10:56.941Z,1.85
2023-03-26T07:13:48.703Z,1.45
2023-03-26T07:16:34.620Z,1.80
2023-03-26T07:19:11.131Z,1.60
2023-03-26T07:21:40.810Z,1.40
2023-03-26T07:24:28.643Z,1.52
2023-03-26T07:27:17.871Z,1.50
2023-03-26T07:30:23.081Z,1.33
2023-03-26T07:33:37.791Z,1.42
2023-03-26T07:36:39.517Z,1.20
2023-03-26T07:39:59.052Z,1.50
2023-03-26T07:43:17.334Z,1.08
2023-03-26T07:46:04.971Z,1.00
2023-03-26T07:48:55.007Z,0.90
2023-03-26T07:51:42.005Z,1.17
2023-03-26T07:54:15.435Z,1.50
2023-03-26T07:57:18.849Z,1.50
2023-03-26T08:00:15.264Z,1.23
2023-03-26T08:03:12.116Z,1.20
2023-03-26T08:06:32.735Z,1.15
2023-03-26T08:09:42.176Z,1.65
2023-03-26T08:12:59.832Z,1.58
2023-03-26T08:15:48.324Z,1.58
2023-03-26T08:18:54.384Z,1.63
2023-03-26T08:21:35.792Z,1.83
2023-03-26T08:24:24.045Z,1.63
2023-03-26T08:27:41.974Z,1.38
2023-03-26T08:30:22.255Z,1.65
2023-03-26T08:33:18.056Z,1.50
2023-03-26T08:35:47.646Z,1.83
2023-03-26T08:38:20.345Z,1.77
2023-03-26T08:41:08.842Z,1.40
2023-03-26T08:43:56.374Z,1.40
2023-03-26T08:47:23.532Z,1.50
2023-03-26T08:50:10.437Z,1.58
2023-03-26T08:53:19.157Z,1.40
2023-03-26T08:56:13.003Z,1.50
2023-03-26T08:59:27.493Z,1.73
2023-03-26T09:02:29.401Z,2.05
2023-03-26T09:05:35.468Z,1.25
2023-03-26T09:08:02.561Z,1.60
2023-03-26T09:10:52.594Z,1.67
2023-03-26T09:13:44.845Z,1.55
2023-03-26T09:16:56.451Z,2.10
2023-03-26T09:20:06.129Z,1.30
2023-03-26T09:23:28.567Z,1.95
2023-03-26T09:26:13.641Z,1.92
2023-03-26T09:29:47.318Z,1.60
2023-03-26T09:35:16.268Z,1.52
2023-03-26T09:38:06.543Z,1.38
2023-03-26T09:40:44.085Z,1.35
2023-03-26T09:44:12.830Z,1.85
2023-03-26T09:47:32.032Z,2.05
2023-03-26T09:50:23.499Z,1.70
2023-03-26T09:53:10.956Z,1.80
2023-03-26T09:56:32.924Z,1.70
2023-03-26T09:59:35.367Z,1.30
2023-03-26T10:34:50.253Z,1.50
2023-03-26T10:37:20.631Z,1.40
2023-03-26T10:40:31.148Z,1.50
2023-03-26T10:43:12.540Z,1.33
2023-03-26T10:51:39.429Z,1.30
2023-03-26T11:25:16.852Z,0.95
2023-03-26T11:58:03.476Z,1.13
2023-03-26T12:00:31.165Z,1.45
2023-03-26T12:03:00.469Z,1.13
2023-03-26T12:06:02.362Z,1.52
2023-03-26T12:08:39.655Z,1.50
2023-03-26T12:11:13.077Z,1.30
2023-03-26T12:13:45.818Z,1.20
2023-03-26T12:22:24.112Z,1.10
2023-03-26T16:33:20.461Z,2.42
2023-03-26T16:36:36.582Z,2.55
2023-03-26T16:39:07.606Z,2.45
2023-03-26T16:42:08.552Z,3.22
2023-03-26T16:45:15.219Z,2.80
2023-03-26T16:48:06.824Z,2.53
2023-03-26T16:51:26.196Z,2.58
2023-03-26T16:54:28.342Z,2.60
2023-03-26T16:57:28.913Z,3.00
2023-03-26T17:00:16.550Z,2.42
2023-03-26T17:03:04.673Z,3.15
2023-03-26T17:05:59.020Z,2.63
2023-03-26T17:09:42.789Z,2.45
2023-03-26T17:12:35.570Z,3.08
2023-03-26T17:15:23.217Z,2.90
2023-03-26T17:18:47.937Z,2.95
2023-03-26T17:22:06.190Z,2.08
2023-03-26T17:24:56.316Z,2.58
2023-03-26T17:28:29.826Z,2.20
2023-03-26T17:31:05.478Z,2.50
2023-03-26T17:33:46.255Z,2.15
2023-03-26T17:37:13.337Z,2.28
2023-03-26T17:39:40.407Z,2.88
2023-03-26T17:42:19.009Z,2.78
2023-03-26T17:44:56.052Z,2.70
2023-03-26T17:47:29.942Z,2.95
2023-03-26T17:50:11.831Z,2.38
2023-03-26T17:53:02.344Z,2.55
2023-03-26T17:55:45.931Z,3.05
2023-03-26T17:58:33.608Z,2.15
2023-03-26T18:01:32.529Z,2.35
2023-03-26T18:04:07.441Z,2.28
2023-03-26T18:07:44.078Z,1.83
2023-03-26T18:10:41.652Z,1.80
2023-03-26T18:13:41.193Z,2.08
2023-03-26T18:16:49.807Z,1.88
2023-03-26T18:20:16.595Z,2.35
2023-03-26T18:22:46.265Z,2.08
2023-03-26T18:25:29.262Z,2.13
2023-03-26T18:27:57.737Z,1.98
2023-03-26T18:30:26.312Z,1.95
2023-03-26T18:33:13.294Z,2.97
2023-03-26T18:35:55.406Z,2.30
2023-03-26T18:41:06.261Z,1.92
2023-03-26T18:43:44.677Z,2.33
2023-03-26T18:46:14.967Z,2.80
2023-03-26T18:48:42.756Z,2.70
2023-03-26T18:51:11.491Z,2.75
2023-03-26T18:53:49.464Z,2.42
2023-03-26T18:56:41.717Z,3.05
2023-03-26T18:59:29.120Z,2.83
2023-03-26T19:01:58.910Z,3.90
2023-03-26T19:04:56.781Z,3.05
2023-03-26T19:07:26.623Z,2.42
2023-03-26T19:09:57.058Z,2.55
2023-03-26T19:12:37.411Z,2.72
2023-03-26T19:15:13.662Z,3.10
2023-03-26T19:17:53.257Z,3.17
2023-03-26T19:20:26.887Z,3.10
2023-03-26T19:22:57.095Z,2.90
2023-03-26T19:25:36.359Z,3.08
2023-03-26T19:28:06.190Z,3.13
2023-03-26T19:30:39.255Z,3.35
2023-03-26T19:33:18.502Z,3.13
2023-03-26T19:35:53.376Z,3.33
2023-03-26T19:38:27.577Z,2.70
2023-03-26T19:41:01.090Z,2.65
2023-03-26T19:43:29.600Z,2.80
2023-03-26T19:46:01.234Z,2.72
2023-03-26T19:49:26.000Z,4.82
2023-03-26T19:52:28.460Z,3.20
2023-03-26T19:55:10.400Z,4.18
2023-03-26T19:57:38.053Z,7.55
2023-03-26T20:05:25.259Z,3.33
2023-03-26T20:07:58.336Z,2.95
2023-03-26T20:10:27.156Z,2.00
2023-03-26T20:12:54.855Z,1.80
2023-03-26T20:15:31.299Z,2.30
2023-03-26T20:21:38.245Z,2.30
2023-03-26T20:27:35.623Z,2.33
2023-03-26T20:30:08.063Z,2.20
2023-03-26T20:32:38.061Z,2.47
2023-03-26T20:35:35.861Z,3.15
2023-03-26T20:38:05.445Z,2.80
2023-03-26T20:45:21.117Z,3.53
2023-03-26T20:47:54.272Z,2.80
2023-03-26T20:50:26.852Z,2.35
2023-03-26T20:52:55.991Z,5.65
2023-03-26T20:55:28.593Z,9.13
2023-03-26T20:57:58.829Z,10.07
2023-03-26T21:00:26.485Z,7.03
2023-03-26T21:03:59.738Z,2.95
2023-03-26T21:07:07.285Z,2.97
2023-03-26T21:09:44.560Z,3.20
2023-03-26T21:12:32.186Z,2.55
2023-03-26T21:17:29.945Z,2.90
2023-03-26T21:20:00.455Z,2.92
2023-03-26T21:22:39.208Z,3.20
2023-03-26T21:25:42.866Z,3.38
2023-03-26T21:28:42.571Z,3.33
2023-03-26T21:31:34.504Z,3.35
2023-03-26T21:34:05.737Z,3.60
2023-03-26T21:36:35.367Z,3.17
2023-03-26T21:39:04.326Z,2.55
2023-03-26T21:42:05.261Z,3.10
2023-03-26T21:44:34.622Z,3.00
2023-03-26T21:47:08.458Z,3.35
2023-03-26T21:49:39.733Z,3.60
2023-03-26T21:52:07.589Z,3.78
2023-03-26T21:54:35.529Z,3.45
2023-03-26T21:57:57.130Z,2.75
2023-03-26T22:00:55.462Z,3.55
2023-03-26T22:03:47.801Z,3.10
2023-03-26T22:06:49.097Z,3.28
2023-03-26T22:09:20.714Z,2.80
2023-03-26T22:11:53.662Z,3.92
2023-03-26T22:14:26.020Z,2.95
2023-03-26T22:16:53.250Z,2.50
2023-03-26T22:19:20.428Z,2.30
2023-03-26T22:21:47.782Z,2.08
2023-03-26T22:24:14.986Z,2.10
2023-03-26T22:26:42.503Z,1.90
2023-03-26T22:29:14.845Z,2.08
2023-03-26T22:31:43.989Z,2.13
2023-03-26T22:34:11.762Z,2.95
2023-03-26T22:36:41.456Z,2.85
2023-03-26T22:39:08.802Z,2.63
2023-03-26T22:41:35.952Z,2.90
2023-03-26T22:44:16.733Z,2.75
2023-03-26T22:46:49.136Z,2.38
2023-03-26T22:56:09.926Z,1.80
2023-03-26T22:58:38.292Z,1.98
2023-03-26T23:01:12.764Z,2.38
2023-03-26T23:03:40.416Z,2.40
2023-03-26T23:06:10.940Z,2.80
2023-03-26T23:08:39.901Z,2.63
2023-03-26T23:11:19.098Z,3.08
2023-03-26T23:13:47.663Z,3.78
2023-03-26T23:16:17.058Z,3.30
2023-03-26T23:18:44.681Z,3.88
2023-03-26T23:21:19.322Z,3.80
2023-03-26T23:23:48.925Z,2.83
2023-03-26T23:26:16.691Z,3.42
2023-03-26T23:28:44.187Z,3.97
2023-03-26T23:31:13.212Z,4.00
2023-03-26T23:33:50.414Z,5.40
2023-03-26T23:36:20.670Z,5.75
2023-03-26T23:38:48.955Z,5.40
2023-03-26T23:41:21.903Z,5.90
2023-03-26T23:43:53.629Z,4.95
2023-03-26T23:46:25.672Z,4.90
2023-03-26T23:48:53.323Z,4.55
2023-03-26T23:51:22.365Z,4.00
2023-03-26T23:53:50.563Z,3.75
2023-03-26T23:56:18.599Z,2.97
2023-03-26T23:58:48.268Z,2.75
